sensor_id;sensor_type;location;lat;lon;timestamp;P1;durP1;ratioP1;P2;durP2;ratioP2
11767;SDS011;5941;57.652;12.514;2022-09-17T00:00:23;0.97;;;0.27;;
11767;SDS011;5941;57.652;12.514;2022-09-17T00:02:50;1.60;;;0.20;;
11767;SDS011;5941;57.652;12.514;2022-09-17T00:05:19;0.20;;;0.20;;
11767;SDS011;5941;57.652;12.514;2022-09-17T00:07:45;0.40;;;0.40;;
11767;SDS011;5941;57.652;12.514;2022-09-17T00:10:11;0.33;;;0.10;;
11767;SDS011;5941;57.652;12.514;2022-09-17T00:12:37;0.30;;;0.30;;
11767;SDS011;5941;57.652;12.514;2022-09-17T00:15:03;0.20;;;0.10;;
11767;SDS011;5941;57.652;12.514;2022-09-17T00:17:29;0.30;;;0.10;;
11767;SDS011;5941;57.652;12.514;2022-09-17T00:19:55;0.23;;;0.20;;
11767;SDS011;5941;57.652;12.514;2022-09-17T00:22:21;0.70;;;0.20;;
11767;SDS011;5941;57.652;12.514;2022-09-17T00:24:47;0.43;;;0.20;;
11767;SDS011;5941;57.652;12.514;2022-09-17T00:27:13;0.20;;;0.20;;
11767;SDS011;5941;57.652;12.514;2022-09-17T00:29:39;0.30;;;0.30;;
11767;SDS011;5941;57.652;12.514;2022-09-17T00:32:05;0.40;;;0.37;;
11767;SDS011;5941;57.652;12.514;2022-09-17T00:34:31;1.57;;;0.60;;
11767;SDS011;5941;57.652;12.514;2022-09-17T00:36:57;0.90;;;0.70;;
11767;SDS011;5941;57.652;12.514;2022-09-17T00:39:23;0.60;;;0.30;;
11767;SDS011;5941;57.652;12.514;2022-09-17T00:41:52;0.77;;;0.30;;
11767;SDS011;5941;57.652;12.514;2022-09-17T00:47:27;0.10;;;0.10;;
11767;SDS011;5941;57.652;12.514;2022-09-17T00:49:55;0.40;;;0.40;;
11767;SDS011;5941;57.652;12.514;2022-09-17T00:52:24;0.73;;;0.10;;
11767;SDS011;5941;57.652;12.514;2022-09-17T00:54:53;0.77;;;0.30;;
11767;SDS011;5941;57.652;12.514;2022-09-17T00:57:21;0.23;;;0.23;;
11767;SDS011;5941;57.652;12.514;2022-09-17T00:59:47;0.20;;;0.20;;
11767;SDS011;5941;57.652;12.514;2022-09-17T01:02:13;0.40;;;0.40;;
11767;SDS011;5941;57.652;12.514;2022-09-17T01:04:39;0.60;;;0.40;;
11767;SDS011;5941;57.652;12.514;2022-09-17T01:09:44;1.10;;;0.23;;
11767;SDS011;5941;57.652;12.514;2022-09-17T01:32:37;2.00;;;0.20;;
11767;SDS011;5941;57.652;12.514;2022-09-17T01:37:33;0.17;;;0.17;;
11767;SDS011;5941;57.652;12.514;2022-09-17T01:40:03;0.20;;;0.20;;
11767;SDS011;5941;57.652;12.514;2022-09-17T01:42:42;0.20;;;0.20;;
11767;SDS011;5941;57.652;12.514;2022-09-17T01:47:58;0.30;;;0.30;;
11767;SDS011;5941;57.652;12.514;2022-09-17T01:50:28;0.30;;;0.20;;
11767;SDS011;5941;57.652;12.514;2022-09-17T01:52:55;0.20;;;0.10;;
11767;SDS011;5941;57.652;12.514;2022-09-17T01:55:23;0.10;;;0.10;;
11767;SDS011;5941;57.652;12.514;2022-09-17T01:57:59;0.20;;;0.20;;
11767;SDS011;5941;57.652;12.514;2022-09-17T02:00:27;0.20;;;0.20;;
11767;SDS011;5941;57.652;12.514;2022-09-17T02:03:01;1.30;;;0.10;;
11767;SDS011;5941;57.652;12.514;2022-09-17T02:07:58;2.00;;;0.20;;
11767;SDS011;5941;57.652;12.514;2022-09-17T02:10:30;0.10;;;0.10;;
11767;SDS011;5941;57.652;12.514;2022-09-17T02:13:00;0.23;;;0.20;;
11767;SDS011;5941;57.652;12.514;2022-09-17T02:15:32;0.83;;;0.20;;
11767;SDS011;5941;57.652;12.514;2022-09-17T02:20:29;0.10;;;0.10;;
11767;SDS011;5941;57.652;12.514;2022-09-17T02:23:00;0.30;;;0.13;;
11767;SDS011;5941;57.652;12.514;2022-09-17T02:25:33;0.20;;;0.10;;
11767;SDS011;5941;57.652;12.514;2022-09-17T02:28:11;0.00;;;0.00;;
11767;SDS011;5941;57.652;12.514;2022-09-17T02:30:39;1.40;;;0.30;;
11767;SDS011;5941;57.652;12.514;2022-09-17T02:33:06;0.20;;;0.20;;
11767;SDS011;5941;57.652;12.514;2022-09-17T02:35:34;0.97;;;0.30;;
11767;SDS011;5941;57.652;12.514;2022-09-17T02:38:01;1.60;;;0.13;;
11767;SDS011;5941;57.652;12.514;2022-09-17T02:40:28;0.20;;;0.20;;
11767;SDS011;5941;57.652;12.514;2022-09-17T02:48:04;0.40;;;0.40;;
11767;SDS011;5941;57.652;12.514;2022-09-17T03:01:37;0.30;;;0.30;;
11767;SDS011;5941;57.652;12.514;2022-09-17T03:04:04;0.43;;;0.27;;
11767;SDS011;5941;57.652;12.514;2022-09-17T03:06:32;0.37;;;0.37;;
11767;SDS011;5941;57.652;12.514;2022-09-17T03:08:58;0.30;;;0.30;;
11767;SDS011;5941;57.652;12.514;2022-09-17T03:11:24;0.70;;;0.40;;
11767;SDS011;5941;57.652;12.514;2022-09-17T03:13:50;0.60;;;0.30;;
11767;SDS011;5941;57.652;12.514;2022-09-17T03:16:16;0.40;;;0.40;;
11767;SDS011;5941;57.652;12.514;2022-09-17T03:18:42;0.30;;;0.20;;
11767;SDS011;5941;57.652;12.514;2022-09-17T03:21:08;0.37;;;0.30;;
11767;SDS011;5941;57.652;12.514;2022-09-17T03:23:36;1.60;;;0.20;;
11767;SDS011;5941;57.652;12.514;2022-09-17T03:26:03;1.50;;;0.30;;
11767;SDS011;5941;57.652;12.514;2022-09-17T03:28:29;0.60;;;0.40;;
11767;SDS011;5941;57.652;12.514;2022-09-17T03:30:55;1.90;;;0.30;;
11767;SDS011;5941;57.652;12.514;2022-09-17T03:33:21;0.50;;;0.30;;
11767;SDS011;5941;57.652;12.514;2022-09-17T03:35:47;0.20;;;0.20;;
11767;SDS011;5941;57.652;12.514;2022-09-17T03:38:13;0.70;;;0.20;;
11767;SDS011;5941;57.652;12.514;2022-09-17T03:40:39;0.60;;;0.40;;
11767;SDS011;5941;57.652;12.514;2022-09-17T03:43:06;1.10;;;0.23;;
11767;SDS011;5941;57.652;12.514;2022-09-17T03:45:32;1.37;;;0.40;;
11767;SDS011;5941;57.652;12.514;2022-09-17T03:47:58;0.50;;;0.30;;
11767;SDS011;5941;57.652;12.514;2022-09-17T03:50:24;0.60;;;0.27;;
11767;SDS011;5941;57.652;12.514;2022-09-17T03:52:50;0.20;;;0.20;;
11767;SDS011;5941;57.652;12.514;2022-09-17T03:55:16;0.20;;;0.20;;
11767;SDS011;5941;57.652;12.514;2022-09-17T03:57:42;0.40;;;0.40;;
11767;SDS011;5941;57.652;12.514;2022-09-17T04:00:08;1.00;;;0.37;;
11767;SDS011;5941;57.652;12.514;2022-09-17T04:02:36;0.80;;;0.40;;
11767;SDS011;5941;57.652;12.514;2022-09-17T04:05:02;1.33;;;0.40;;
11767;SDS011;5941;57.652;12.514;2022-09-17T04:07:28;0.83;;;0.53;;
11767;SDS011;5941;57.652;12.514;2022-09-17T04:09:54;0.30;;;0.30;;
11767;SDS011;5941;57.652;12.514;2022-09-17T04:12:20;1.10;;;0.30;;
11767;SDS011;5941;57.652;12.514;2022-09-17T04:14:46;0.37;;;0.37;;
11767;SDS011;5941;57.652;12.514;2022-09-17T04:17:12;0.40;;;0.27;;
11767;SDS011;5941;57.652;12.514;2022-09-17T04:19:42;0.30;;;0.30;;
11767;SDS011;5941;57.652;12.514;2022-09-17T04:22:08;0.37;;;0.30;;
11767;SDS011;5941;57.652;12.514;2022-09-17T04:24:33;0.40;;;0.30;;
11767;SDS011;5941;57.652;12.514;2022-09-17T04:26:59;0.30;;;0.20;;
11767;SDS011;5941;57.652;12.514;2022-09-17T04:29:25;0.27;;;0.27;;
11767;SDS011;5941;57.652;12.514;2022-09-17T04:31:52;0.40;;;0.30;;
11767;SDS011;5941;57.652;12.514;2022-09-17T04:34:18;0.30;;;0.30;;
11767;SDS011;5941;57.652;12.514;2022-09-17T04:36:44;1.07;;;0.20;;
11767;SDS011;5941;57.652;12.514;2022-09-17T04:39:10;0.10;;;0.10;;
11767;SDS011;5941;57.652;12.514;2022-09-17T04:41:36;0.93;;;0.30;;
11767;SDS011;5941;57.652;12.514;2022-09-17T04:44:02;0.20;;;0.13;;
11767;SDS011;5941;57.652;12.514;2022-09-17T04:46:28;0.10;;;0.10;;
11767;SDS011;5941;57.652;12.514;2022-09-17T04:48:54;1.33;;;0.30;;
11767;SDS011;5941;57.652;12.514;2022-09-17T04:51:20;0.70;;;0.30;;
11767;SDS011;5941;57.652;12.514;2022-09-17T04:53:46;0.10;;;0.10;;
11767;SDS011;5941;57.652;12.514;2022-09-17T04:56:12;0.30;;;0.30;;
11767;SDS011;5941;57.652;12.514;2022-09-17T04:58:38;0.70;;;0.40;;
11767;SDS011;5941;57.652;12.514;2022-09-17T05:01:04;0.70;;;0.20;;
11767;SDS011;5941;57.652;12.514;2022-09-17T05:03:30;0.20;;;0.20;;
11767;SDS011;5941;57.652;12.514;2022-09-17T05:05:56;2.00;;;0.30;;
11767;SDS011;5941;57.652;12.514;2022-09-17T05:08:22;0.10;;;0.10;;
11767;SDS011;5941;57.652;12.514;2022-09-17T05:10:52;0.20;;;0.20;;
11767;SDS011;5941;57.652;12.514;2022-09-17T05:13:18;0.30;;;0.30;;
11767;SDS011;5941;57.652;12.514;2022-09-17T05:15:44;3.47;;;0.50;;
11767;SDS011;5941;57.652;12.514;2022-09-17T05:18:10;0.17;;;0.17;;
11767;SDS011;5941;57.652;12.514;2022-09-17T05:20:36;0.10;;;0.10;;
11767;SDS011;5941;57.652;12.514;2022-09-17T05:23:02;0.30;;;0.30;;
11767;SDS011;5941;57.652;12.514;2022-09-17T05:25:28;0.37;;;0.13;;
11767;SDS011;5941;57.652;12.514;2022-09-17T05:27:54;2.03;;;0.20;;
11767;SDS011;5941;57.652;12.514;2022-09-17T05:30:21;0.40;;;0.27;;
11767;SDS011;5941;57.652;12.514;2022-09-17T05:32:47;0.33;;;0.30;;
11767;SDS011;5941;57.652;12.514;2022-09-17T05:35:13;0.27;;;0.27;;
11767;SDS011;5941;57.652;12.514;2022-09-17T05:37:39;0.60;;;0.30;;
11767;SDS011;5941;57.652;12.514;2022-09-17T05:40:06;1.57;;;0.20;;
11767;SDS011;5941;57.652;12.514;2022-09-17T05:42:32;0.20;;;0.20;;
11767;SDS011;5941;57.652;12.514;2022-09-17T05:44:58;0.30;;;0.10;;
11767;SDS011;5941;57.652;12.514;2022-09-17T05:47:24;0.40;;;0.30;;
11767;SDS011;5941;57.652;12.514;2022-09-17T05:49:50;1.40;;;0.30;;
11767;SDS011;5941;57.652;12.514;2022-09-17T05:52:16;0.40;;;0.40;;
11767;SDS011;5941;57.652;12.514;2022-09-17T05:54:43;0.60;;;0.60;;
11767;SDS011;5941;57.652;12.514;2022-09-17T05:57:09;1.63;;;0.60;;
11767;SDS011;5941;57.652;12.514;2022-09-17T05:59:35;0.53;;;0.53;;
11767;SDS011;5941;57.652;12.514;2022-09-17T06:02:01;0.20;;;0.20;;
11767;SDS011;5941;57.652;12.514;2022-09-17T06:04:27;0.33;;;0.30;;
11767;SDS011;5941;57.652;12.514;2022-09-17T06:06:53;0.30;;;0.30;;
11767;SDS011;5941;57.652;12.514;2022-09-17T06:09:19;0.30;;;0.27;;
11767;SDS011;5941;57.652;12.514;2022-09-17T06:11:45;0.30;;;0.30;;
11767;SDS011;5941;57.652;12.514;2022-09-17T06:14:11;0.23;;;0.23;;
11767;SDS011;5941;57.652;12.514;2022-09-17T06:16:37;0.57;;;0.30;;
11767;SDS011;5941;57.652;12.514;2022-09-17T06:19:03;0.30;;;0.30;;
11767;SDS011;5941;57.652;12.514;2022-09-17T06:21:29;0.80;;;0.50;;
11767;SDS011;5941;57.652;12.514;2022-09-17T06:23:55;0.20;;;0.20;;
11767;SDS011;5941;57.652;12.514;2022-09-17T06:26:21;0.20;;;0.20;;
11767;SDS011;5941;57.652;12.514;2022-09-17T06:28:46;0.50;;;0.30;;
11767;SDS011;5941;57.652;12.514;2022-09-17T06:31:12;0.50;;;0.40;;
11767;SDS011;5941;57.652;12.514;2022-09-17T06:33:39;0.30;;;0.30;;
11767;SDS011;5941;57.652;12.514;2022-09-17T06:36:06;0.30;;;0.30;;
11767;SDS011;5941;57.652;12.514;2022-09-17T06:38:33;1.50;;;0.30;;
11767;SDS011;5941;57.652;12.514;2022-09-17T06:41:00;0.83;;;0.30;;
11767;SDS011;5941;57.652;12.514;2022-09-17T06:43:26;1.57;;;0.30;;
11767;SDS011;5941;57.652;12.514;2022-09-17T06:48:18;1.90;;;0.30;;
11767;SDS011;5941;57.652;12.514;2022-09-17T06:50:44;0.63;;;0.23;;
11767;SDS011;5941;57.652;12.514;2022-09-17T06:53:10;0.00;;;0.00;;
11767;SDS011;5941;57.652;12.514;2022-09-17T06:55:36;0.53;;;0.37;;
11767;SDS011;5941;57.652;12.514;2022-09-17T06:58:02;0.20;;;0.20;;
11767;SDS011;5941;57.652;12.514;2022-09-17T07:00:28;0.63;;;0.20;;
11767;SDS011;5941;57.652;12.514;2022-09-17T07:02:57;0.83;;;0.17;;
11767;SDS011;5941;57.652;12.514;2022-09-17T07:05:24;0.20;;;0.20;;
11767;SDS011;5941;57.652;12.514;2022-09-17T07:07:50;0.70;;;0.20;;
11767;SDS011;5941;57.652;12.514;2022-09-17T07:10:16;0.20;;;0.20;;
11767;SDS011;5941;57.652;12.514;2022-09-17T07:12:42;0.10;;;0.10;;
11767;SDS011;5941;57.652;12.514;2022-09-17T07:15:08;1.60;;;0.30;;
11767;SDS011;5941;57.652;12.514;2022-09-17T07:17:35;1.43;;;0.20;;
11767;SDS011;5941;57.652;12.514;2022-09-17T07:20:03;0.30;;;0.30;;
11767;SDS011;5941;57.652;12.514;2022-09-17T07:22:29;0.40;;;0.40;;
11767;SDS011;5941;57.652;12.514;2022-09-17T07:24:55;0.47;;;0.20;;
11767;SDS011;5941;57.652;12.514;2022-09-17T07:27:21;0.20;;;0.20;;
11767;SDS011;5941;57.652;12.514;2022-09-17T07:29:47;0.77;;;0.13;;
11767;SDS011;5941;57.652;12.514;2022-09-17T07:32:13;0.20;;;0.20;;
11767;SDS011;5941;57.652;12.514;2022-09-17T07:34:39;0.67;;;0.10;;
11767;SDS011;5941;57.652;12.514;2022-09-17T07:37:05;0.23;;;0.10;;
11767;SDS011;5941;57.652;12.514;2022-09-17T07:39:31;0.10;;;0.10;;
11767;SDS011;5941;57.652;12.514;2022-09-17T07:41:57;0.10;;;0.10;;
11767;SDS011;5941;57.652;12.514;2022-09-17T07:44:23;0.00;;;0.00;;
11767;SDS011;5941;57.652;12.514;2022-09-17T07:46:49;0.10;;;0.10;;
11767;SDS011;5941;57.652;12.514;2022-09-17T07:49:15;0.07;;;0.07;;
11767;SDS011;5941;57.652;12.514;2022-09-17T07:51:41;0.13;;;0.10;;
11767;SDS011;5941;57.652;12.514;2022-09-17T07:54:07;0.10;;;0.10;;
11767;SDS011;5941;57.652;12.514;2022-09-17T07:56:33;0.13;;;0.10;;
11767;SDS011;5941;57.652;12.514;2022-09-17T07:59:00;0.30;;;0.10;;
11767;SDS011;5941;57.652;12.514;2022-09-17T08:01:26;0.10;;;0.10;;
11767;SDS011;5941;57.652;12.514;2022-09-17T08:03:53;0.10;;;0.10;;
11767;SDS011;5941;57.652;12.514;2022-09-17T08:06:20;0.30;;;0.10;;
11767;SDS011;5941;57.652;12.514;2022-09-17T08:08:46;0.57;;;0.20;;
11767;SDS011;5941;57.652;12.514;2022-09-17T08:11:14;0.10;;;0.10;;
11767;SDS011;5941;57.652;12.514;2022-09-17T08:13:40;0.20;;;0.10;;
11767;SDS011;5941;57.652;12.514;2022-09-17T08:16:07;0.30;;;0.20;;
11767;SDS011;5941;57.652;12.514;2022-09-17T08:18:33;0.20;;;0.20;;
11767;SDS011;5941;57.652;12.514;2022-09-17T08:21:00;1.07;;;0.13;;
11767;SDS011;5941;57.652;12.514;2022-09-17T08:23:27;0.20;;;0.20;;
11767;SDS011;5941;57.652;12.514;2022-09-17T08:25:57;0.10;;;0.00;;
11767;SDS011;5941;57.652;12.514;2022-09-17T08:28:24;0.07;;;0.00;;
11767;SDS011;5941;57.652;12.514;2022-09-17T08:30:51;0.20;;;0.20;;
11767;SDS011;5941;57.652;12.514;2022-09-17T08:33:17;0.30;;;0.20;;
11767;SDS011;5941;57.652;12.514;2022-09-17T08:35:53;0.10;;;0.10;;
11767;SDS011;5941;57.652;12.514;2022-09-17T08:38:23;0.73;;;0.20;;
11767;SDS011;5941;57.652;12.514;2022-09-17T08:40:59;0.20;;;0.20;;
11767;SDS011;5941;57.652;12.514;2022-09-17T08:43:29;0.10;;;0.10;;
11767;SDS011;5941;57.652;12.514;2022-09-17T08:45:55;0.20;;;0.20;;
11767;SDS011;5941;57.652;12.514;2022-09-17T08:48:24;0.20;;;0.20;;
11767;SDS011;5941;57.652;12.514;2022-09-17T08:50:51;0.40;;;0.30;;
11767;SDS011;5941;57.652;12.514;2022-09-17T08:53:22;0.70;;;0.40;;
11767;SDS011;5941;57.652;12.514;2022-09-17T08:55:59;0.40;;;0.40;;
11767;SDS011;5941;57.652;12.514;2022-09-17T09:06:19;0.77;;;0.37;;
11767;SDS011;5941;57.652;12.514;2022-09-17T09:08:47;0.30;;;0.30;;
11767;SDS011;5941;57.652;12.514;2022-09-17T09:11:16;0.27;;;0.27;;
11767;SDS011;5941;57.652;12.514;2022-09-17T09:13:45;1.90;;;0.23;;
11767;SDS011;5941;57.652;12.514;2022-09-17T09:16:19;0.10;;;0.10;;
11767;SDS011;5941;57.652;12.514;2022-09-17T09:18:47;0.13;;;0.13;;
11767;SDS011;5941;57.652;12.514;2022-09-17T09:26:44;0.10;;;0.10;;
11767;SDS011;5941;57.652;12.514;2022-09-17T09:34:11;0.73;;;0.17;;
11767;SDS011;5941;57.652;12.514;2022-09-17T09:36:38;0.43;;;0.10;;
11767;SDS011;5941;57.652;12.514;2022-09-17T09:41:59;0.17;;;0.10;;
11767;SDS011;5941;57.652;12.514;2022-09-17T09:44:30;0.30;;;0.20;;
11767;SDS011;5941;57.652;12.514;2022-09-17T09:57:58;0.20;;;0.20;;
11767;SDS011;5941;57.652;12.514;2022-09-17T10:00:34;0.10;;;0.10;;
11767;SDS011;5941;57.652;12.514;2022-09-17T10:03:09;0.20;;;0.20;;
11767;SDS011;5941;57.652;12.514;2022-09-17T10:05:36;0.80;;;0.30;;
11767;SDS011;5941;57.652;12.514;2022-09-17T10:08:12;0.30;;;0.30;;
11767;SDS011;5941;57.652;12.514;2022-09-17T10:10:58;0.10;;;0.10;;
11767;SDS011;5941;57.652;12.514;2022-09-17T10:13:25;0.20;;;0.20;;
11767;SDS011;5941;57.652;12.514;2022-09-17T10:15:51;0.10;;;0.10;;
11767;SDS011;5941;57.652;12.514;2022-09-17T10:18:18;0.20;;;0.20;;
11767;SDS011;5941;57.652;12.514;2022-09-17T10:20:48;0.07;;;0.07;;
11767;SDS011;5941;57.652;12.514;2022-09-17T10:23:14;0.20;;;0.20;;
11767;SDS011;5941;57.652;12.514;2022-09-17T10:25:43;0.10;;;0.10;;
11767;SDS011;5941;57.652;12.514;2022-09-17T10:28:28;0.10;;;0.10;;
11767;SDS011;5941;57.652;12.514;2022-09-17T10:30:56;0.00;;;0.00;;
11767;SDS011;5941;57.652;12.514;2022-09-17T10:33:29;0.00;;;0.00;;
11767;SDS011;5941;57.652;12.514;2022-09-17T10:36:06;0.10;;;0.10;;
11767;SDS011;5941;57.652;12.514;2022-09-17T10:38:38;0.10;;;0.00;;
11767;SDS011;5941;57.652;12.514;2022-09-17T10:41:08;0.10;;;0.10;;
11767;SDS011;5941;57.652;12.514;2022-09-17T10:43:35;0.00;;;0.00;;
11767;SDS011;5941;57.652;12.514;2022-09-17T10:46:01;0.00;;;0.00;;
11767;SDS011;5941;57.652;12.514;2022-09-17T10:48:30;0.83;;;0.00;;
11767;SDS011;5941;57.652;12.514;2022-09-17T10:50:56;0.03;;;0.03;;
11767;SDS011;5941;57.652;12.514;2022-09-17T10:53:23;0.10;;;0.10;;
11767;SDS011;5941;57.652;12.514;2022-09-17T10:55:55;0.00;;;0.00;;
11767;SDS011;5941;57.652;12.514;2022-09-17T10:58:31;0.00;;;0.00;;
11767;SDS011;5941;57.652;12.514;2022-09-17T11:04:05;0.00;;;0.00;;
11767;SDS011;5941;57.652;12.514;2022-09-17T11:10:04;0.10;;;0.00;;
11767;SDS011;5941;57.652;12.514;2022-09-17T11:12:03;0.27;;;0.10;;
11767;SDS011;5941;57.652;12.514;2022-09-17T11:14:49;0.00;;;0.00;;
11767;SDS011;5941;57.652;12.514;2022-09-17T11:25:53;0.00;;;0.00;;
11767;SDS011;5941;57.652;12.514;2022-09-17T11:28:26;0.10;;;0.00;;
11767;SDS011;5941;57.652;12.514;2022-09-17T11:36:22;0.00;;;0.00;;
11767;SDS011;5941;57.652;12.514;2022-09-17T11:38:49;0.03;;;0.03;;
11767;SDS011;5941;57.652;12.514;2022-09-17T11:41:19;2.40;;;0.30;;
11767;SDS011;5941;57.652;12.514;2022-09-17T11:46:33;0.07;;;0.07;;
11767;SDS011;5941;57.652;12.514;2022-09-17T11:49:01;0.10;;;0.07;;
11767;SDS011;5941;57.652;12.514;2022-09-17T11:51:31;0.10;;;0.00;;
11767;SDS011;5941;57.652;12.514;2022-09-17T12:01:46;0.00;;;0.00;;
11767;SDS011;5941;57.652;12.514;2022-09-17T12:07:02;0.03;;;0.03;;
11767;SDS011;5941;57.652;12.514;2022-09-17T12:09:33;0.00;;;0.00;;
11767;SDS011;5941;57.652;12.514;2022-09-17T12:12:05;0.53;;;0.10;;
11767;SDS011;5941;57.652;12.514;2022-09-17T12:14:53;0.00;;;0.00;;
11767;SDS011;5941;57.652;12.514;2022-09-17T12:17:22;0.00;;;0.00;;
11767;SDS011;5941;57.652;12.514;2022-09-17T12:19:50;0.00;;;0.00;;
11767;SDS011;5941;57.652;12.514;2022-09-17T12:22:22;0.10;;;0.07;;
11767;SDS011;5941;57.652;12.514;2022-09-17T12:24:49;0.47;;;0.10;;
11767;SDS011;5941;57.652;12.514;2022-09-17T12:32:30;0.57;;;0.00;;
11767;SDS011;5941;57.652;12.514;2022-09-17T12:37:58;0.10;;;0.10;;
11767;SDS011;5941;57.652;12.514;2022-09-17T12:40:29;0.00;;;0.00;;
11767;SDS011;5941;57.652;12.514;2022-09-17T12:45:29;0.10;;;0.10;;
11767;SDS011;5941;57.652;12.514;2022-09-17T13:00:47;0.07;;;0.07;;
11767;SDS011;5941;57.652;12.514;2022-09-17T13:03:23;0.00;;;0.00;;
11767;SDS011;5941;57.652;12.514;2022-09-17T13:10:59;0.03;;;0.00;;
11767;SDS011;5941;57.652;12.514;2022-09-17T13:13:35;0.10;;;0.03;;
11767;SDS011;5941;57.652;12.514;2022-09-17T13:16:10;0.00;;;0.00;;
11767;SDS011;5941;57.652;12.514;2022-09-17T13:23:54;0.00;;;0.00;;
11767;SDS011;5941;57.652;12.514;2022-09-17T13:26:21;0.10;;;0.10;;
11767;SDS011;5941;57.652;12.514;2022-09-17T13:28:57;0.00;;;0.00;;
11767;SDS011;5941;57.652;12.514;2022-09-17T13:34:01;0.77;;;0.00;;
11767;SDS011;5941;57.652;12.514;2022-09-17T13:36:41;0.00;;;0.00;;
11767;SDS011;5941;57.652;12.514;2022-09-17T13:39:08;0.10;;;0.10;;
11767;SDS011;5941;57.652;12.514;2022-09-17T13:41:36;0.10;;;0.10;;
11767;SDS011;5941;57.652;12.514;2022-09-17T13:44:03;0.93;;;0.20;;
11767;SDS011;5941;57.652;12.514;2022-09-17T13:46:29;0.00;;;0.00;;
11767;SDS011;5941;57.652;12.514;2022-09-17T13:48:58;0.50;;;0.10;;
11767;SDS011;5941;57.652;12.514;2022-09-17T13:53:54;0.10;;;0.10;;
11767;SDS011;5941;57.652;12.514;2022-09-17T13:56:35;0.40;;;0.13;;
11767;SDS011;5941;57.652;12.514;2022-09-17T13:59:21;0.20;;;0.13;;
11767;SDS011;5941;57.652;12.514;2022-09-17T14:01:55;0.10;;;0.07;;
11767;SDS011;5941;57.652;12.514;2022-09-17T14:15:00;0.00;;;0.00;;
11767;SDS011;5941;57.652;12.514;2022-09-17T14:20:11;0.27;;;0.00;;
11767;SDS011;5941;57.652;12.514;2022-09-17T14:22:37;0.10;;;0.10;;
11767;SDS011;5941;57.652;12.514;2022-09-17T14:25:03;0.77;;;0.20;;
11767;SDS011;5941;57.652;12.514;2022-09-17T14:33:28;0.67;;;0.17;;
11767;SDS011;5941;57.652;12.514;2022-09-17T14:35:36;0.33;;;0.33;;
11767;SDS011;5941;57.652;12.514;2022-09-17T14:40:46;0.40;;;0.10;;
11767;SDS011;5941;57.652;12.514;2022-09-17T14:43:19;0.20;;;0.00;;
11767;SDS011;5941;57.652;12.514;2022-09-17T14:45:47;0.23;;;0.10;;
11767;SDS011;5941;57.652;12.514;2022-09-17T14:48:19;0.63;;;0.10;;
11767;SDS011;5941;57.652;12.514;2022-09-17T14:50:45;1.10;;;0.10;;
11767;SDS011;5941;57.652;12.514;2022-09-17T14:53:13;0.20;;;0.10;;
11767;SDS011;5941;57.652;12.514;2022-09-17T14:55:40;0.30;;;0.20;;
11767;SDS011;5941;57.652;12.514;2022-09-17T14:58:18;0.17;;;0.10;;
11767;SDS011;5941;57.652;12.514;2022-09-17T15:00:49;0.67;;;0.20;;
11767;SDS011;5941;57.652;12.514;2022-09-17T15:03:21;0.30;;;0.10;;
11767;SDS011;5941;57.652;12.514;2022-09-17T15:05:47;0.27;;;0.13;;
11767;SDS011;5941;57.652;12.514;2022-09-17T15:10:45;0.00;;;0.00;;
11767;SDS011;5941;57.652;12.514;2022-09-17T15:13:13;0.47;;;0.10;;
11767;SDS011;5941;57.652;12.514;2022-09-17T15:15:44;0.10;;;0.10;;
11767;SDS011;5941;57.652;12.514;2022-09-17T15:18:15;1.03;;;0.20;;
11767;SDS011;5941;57.652;12.514;2022-09-17T15:20:41;0.47;;;0.20;;
11767;SDS011;5941;57.652;12.514;2022-09-17T15:23:11;0.30;;;0.20;;
11767;SDS011;5941;57.652;12.514;2022-09-17T15:25:38;0.17;;;0.10;;
11767;SDS011;5941;57.652;12.514;2022-09-17T15:30:50;0.10;;;0.10;;
11767;SDS011;5941;57.652;12.514;2022-09-17T15:33:16;0.30;;;0.10;;
11767;SDS011;5941;57.652;12.514;2022-09-17T15:35:57;0.90;;;0.10;;
11767;SDS011;5941;57.652;12.514;2022-09-17T15:38:27;0.23;;;0.20;;
11767;SDS011;5941;57.652;12.514;2022-09-17T15:40:53;0.50;;;0.20;;
11767;SDS011;5941;57.652;12.514;2022-09-17T15:43:24;0.20;;;0.20;;
11767;SDS011;5941;57.652;12.514;2022-09-17T15:45:51;1.30;;;0.20;;
11767;SDS011;5941;57.652;12.514;2022-09-17T15:50:56;0.23;;;0.23;;
11767;SDS011;5941;57.652;12.514;2022-09-17T15:53:26;0.20;;;0.20;;
11767;SDS011;5941;57.652;12.514;2022-09-17T15:56:08;1.30;;;0.20;;
11767;SDS011;5941;57.652;12.514;2022-09-17T16:08:43;1.10;;;0.27;;
11767;SDS011;5941;57.652;12.514;2022-09-17T16:11:11;0.10;;;0.10;;
11767;SDS011;5941;57.652;12.514;2022-09-17T16:13:37;0.50;;;0.33;;
11767;SDS011;5941;57.652;12.514;2022-09-17T16:16:03;1.30;;;0.20;;
11767;SDS011;5941;57.652;12.514;2022-09-17T16:18:29;0.00;;;0.00;;
11767;SDS011;5941;57.652;12.514;2022-09-17T16:20:55;0.63;;;0.20;;
11767;SDS011;5941;57.652;12.514;2022-09-17T16:23:21;0.80;;;0.20;;
11767;SDS011;5941;57.652;12.514;2022-09-17T16:25:47;0.63;;;0.30;;
11767;SDS011;5941;57.652;12.514;2022-09-17T16:28:15;1.00;;;0.30;;
11767;SDS011;5941;57.652;12.514;2022-09-17T16:30:43;0.20;;;0.10;;
11767;SDS011;5941;57.652;12.514;2022-09-17T16:33:10;0.20;;;0.10;;
11767;SDS011;5941;57.652;12.514;2022-09-17T16:35:36;0.10;;;0.10;;
11767;SDS011;5941;57.652;12.514;2022-09-17T16:38:02;1.90;;;0.20;;
11767;SDS011;5941;57.652;12.514;2022-09-17T16:40:29;1.43;;;0.23;;
11767;SDS011;5941;57.652;12.514;2022-09-17T16:42:56;1.20;;;0.10;;
11767;SDS011;5941;57.652;12.514;2022-09-17T16:45:24;0.30;;;0.20;;
11767;SDS011;5941;57.652;12.514;2022-09-17T16:47:53;1.40;;;0.10;;
11767;SDS011;5941;57.652;12.514;2022-09-17T16:50:19;0.17;;;0.17;;
11767;SDS011;5941;57.652;12.514;2022-09-17T16:52:47;0.20;;;0.10;;
11767;SDS011;5941;57.652;12.514;2022-09-17T16:55:14;0.10;;;0.10;;
11767;SDS011;5941;57.652;12.514;2022-09-17T16:57:40;0.10;;;0.10;;
11767;SDS011;5941;57.652;12.514;2022-09-17T17:00:08;1.23;;;0.30;;
11767;SDS011;5941;57.652;12.514;2022-09-17T17:02:38;1.07;;;0.30;;
11767;SDS011;5941;57.652;12.514;2022-09-17T17:05:04;0.47;;;0.17;;
11767;SDS011;5941;57.652;12.514;2022-09-17T17:07:30;0.77;;;0.10;;
11767;SDS011;5941;57.652;12.514;2022-09-17T17:09:57;0.47;;;0.20;;
11767;SDS011;5941;57.652;12.514;2022-09-17T17:12:24;0.10;;;0.10;;
11767;SDS011;5941;57.652;12.514;2022-09-17T17:14:50;0.10;;;0.10;;
11767;SDS011;5941;57.652;12.514;2022-09-17T17:17:17;0.10;;;0.10;;
11767;SDS011;5941;57.652;12.514;2022-09-17T17:19:43;1.50;;;0.10;;
11767;SDS011;5941;57.652;12.514;2022-09-17T17:22:10;0.17;;;0.17;;
11767;SDS011;5941;57.652;12.514;2022-09-17T17:24:36;0.20;;;0.20;;
11767;SDS011;5941;57.652;12.514;2022-09-17T17:27:02;0.57;;;0.30;;
11767;SDS011;5941;57.652;12.514;2022-09-17T17:29:28;0.30;;;0.30;;
11767;SDS011;5941;57.652;12.514;2022-09-17T17:31:54;0.73;;;0.13;;
11767;SDS011;5941;57.652;12.514;2022-09-17T17:34:20;0.40;;;0.30;;
11767;SDS011;5941;57.652;12.514;2022-09-17T17:36:49;0.70;;;0.27;;
11767;SDS011;5941;57.652;12.514;2022-09-17T17:39:15;0.47;;;0.20;;
11767;SDS011;5941;57.652;12.514;2022-09-17T17:41:41;0.73;;;0.20;;
11767;SDS011;5941;57.652;12.514;2022-09-17T17:44:08;0.87;;;0.20;;
11767;SDS011;5941;57.652;12.514;2022-09-17T17:46:36;0.60;;;0.30;;
11767;SDS011;5941;57.652;12.514;2022-09-17T17:49:03;1.33;;;0.20;;
11767;SDS011;5941;57.652;12.514;2022-09-17T17:51:29;0.80;;;0.20;;
11767;SDS011;5941;57.652;12.514;2022-09-17T17:53:55;0.30;;;0.30;;
11767;SDS011;5941;57.652;12.514;2022-09-17T17:56:21;0.30;;;0.30;;
11767;SDS011;5941;57.652;12.514;2022-09-17T17:58:47;0.93;;;0.20;;
11767;SDS011;5941;57.652;12.514;2022-09-17T18:01:14;0.57;;;0.23;;
11767;SDS011;5941;57.652;12.514;2022-09-17T18:03:41;0.70;;;0.30;;
11767;SDS011;5941;57.652;12.514;2022-09-17T18:06:07;0.57;;;0.37;;
11767;SDS011;5941;57.652;12.514;2022-09-17T18:08:34;1.10;;;0.33;;
11767;SDS011;5941;57.652;12.514;2022-09-17T18:11:01;0.73;;;0.27;;